ドバイ の空港の天気 - METARとTAF

ドバイ国際空港 ( OMDB / DXB ) - アラブ首長国連邦 ドバイ
飛行場実況気象(Metar)
観測時間11/27 13:00 GST (11/27 09:00 UTC)
風向・風速西 5m/s
視程10km以上
天気現象
少しの雲 雲底高度 1220m
気温30℃
湿度59%
気圧1011hPa
METAROMDB 270900Z 28009KT 250V320 9999 FEW040 30/21 Q1011 NOSIG
過去の天気等 Google飛行場航空写真 Wunderground天気予報

過去48時間のMETAR

飛行場予報(TAF)
発表時間: 11/27 09:00 GST (11/27 05:00 UTC)
予報対象時間: 27日10時 GST ~ 28日16時 GST
風向・風速南南西 3m/s
視程8000m
なし
27日10時 GST ~ 27日12時 GST に徐々に
風向・風速西北西 5m/s
27日20時 GST ~ 27日22時 GST に徐々に
風向・風速南 3m/s
28日3時 GST から 確率 30% で
視程3000m
天気現象煙霧
28日12時 GST ~ 28日14時 GST に徐々に
風向・風速北西 5m/s
TAF OMDB 270500Z 2706/2812 20005KT 8000 NSC
BECMG 2706/2708 29010KT
BECMG 2716/2718 17005KT
PROB30 2723/2805 3000 HZ
BECMG 2808/2810 32010KT